sensor_id;sensor_type;location;lat;lon;timestamp;temperature;humidity
28823;DHT22;15961;54.678;9.110;2023-04-06T00:02:04;-1.30;99.90
28823;DHT22;15961;54.678;9.110;2023-04-06T00:04:30;-1.40;99.90
28823;DHT22;15961;54.678;9.110;2023-04-06T00:06:58;-1.40;99.90
28823;DHT22;15961;54.678;9.110;2023-04-06T00:09:24;-1.40;99.90
28823;DHT22;15961;54.678;9.110;2023-04-06T00:11:49;-1.40;99.90
28823;DHT22;15961;54.678;9.110;2023-04-06T00:14:15;-1.40;99.90
28823;DHT22;15961;54.678;9.110;2023-04-06T00:16:42;-1.40;99.90
28823;DHT22;15961;54.678;9.110;2023-04-06T00:19:08;-1.40;99.90
28823;DHT22;15961;54.678;9.110;2023-04-06T00:21:33;-1.30;99.90
28823;DHT22;15961;54.678;9.110;2023-04-06T00:23:59;-1.40;99.90
28823;DHT22;15961;54.678;9.110;2023-04-06T00:26:24;-1.40;99.90
28823;DHT22;15961;54.678;9.110;2023-04-06T00:28:50;-1.50;99.90
28823;DHT22;15961;54.678;9.110;2023-04-06T00:31:17;-1.60;99.90
28823;DHT22;15961;54.678;9.110;2023-04-06T00:33:43;-1.60;99.90
28823;DHT22;15961;54.678;9.110;2023-04-06T00:36:08;-1.70;99.90
28823;DHT22;15961;54.678;9.110;2023-04-06T00:38:34;-1.70;99.90
28823;DHT22;15961;54.678;9.110;2023-04-06T00:41:00;-1.80;99.90
28823;DHT22;15961;54.678;9.110;2023-04-06T00:43:25;-1.90;99.90
28823;DHT22;15961;54.678;9.110;2023-04-06T00:45:51;-2.00;99.90
28823;DHT22;15961;54.678;9.110;2023-04-06T00:48:17;-2.00;99.90
28823;DHT22;15961;54.678;9.110;2023-04-06T00:50:42;-2.10;99.90
28823;DHT22;15961;54.678;9.110;2023-04-06T00:53:08;-2.10;99.90
28823;DHT22;15961;54.678;9.110;2023-04-06T00:55:34;-2.10;99.90
28823;DHT22;15961;54.678;9.110;2023-04-06T00:58:01;-2.10;99.90
28823;DHT22;15961;54.678;9.110;2023-04-06T01:00:27;-2.20;99.90
28823;DHT22;15961;54.678;9.110;2023-04-06T01:02:52;-2.10;99.90
28823;DHT22;15961;54.678;9.110;2023-04-06T01:05:18;-2.10;99.90
28823;DHT22;15961;54.678;9.110;2023-04-06T01:07:45;-2.10;99.90
28823;DHT22;15961;54.678;9.110;2023-04-06T01:10:11;-2.10;99.90
28823;DHT22;15961;54.678;9.110;2023-04-06T01:12:36;-2.10;99.90
28823;DHT22;15961;54.678;9.110;2023-04-06T01:15:04;-2.00;99.90
28823;DHT22;15961;54.678;9.110;2023-04-06T01:17:31;-2.00;99.90
28823;DHT22;15961;54.678;9.110;2023-04-06T01:19:56;-2.00;99.90
28823;DHT22;15961;54.678;9.110;2023-04-06T01:22:23;-2.00;99.90
28823;DHT22;15961;54.678;9.110;2023-04-06T01:24:49;-1.90;99.90
28823;DHT22;15961;54.678;9.110;2023-04-06T01:27:15;-2.00;99.90
28823;DHT22;15961;54.678;9.110;2023-04-06T01:29:40;-2.00;99.90
28823;DHT22;15961;54.678;9.110;2023-04-06T01:32:07;-2.00;99.90
28823;DHT22;15961;54.678;9.110;2023-04-06T01:34:33;-2.10;99.90
28823;DHT22;15961;54.678;9.110;2023-04-06T01:36:58;-2.10;99.90
28823;DHT22;15961;54.678;9.110;2023-04-06T01:39:24;-2.10;99.90
28823;DHT22;15961;54.678;9.110;2023-04-06T01:41:49;-2.10;99.90
28823;DHT22;15961;54.678;9.110;2023-04-06T01:44:17;-2.10;99.90
28823;DHT22;15961;54.678;9.110;2023-04-06T01:46:43;-2.10;99.90
28823;DHT22;15961;54.678;9.110;2023-04-06T01:49:08;-2.10;99.90
28823;DHT22;15961;54.678;9.110;2023-04-06T01:51:34;-2.20;99.90
28823;DHT22;15961;54.678;9.110;2023-04-06T01:54:00;-2.20;99.90
28823;DHT22;15961;54.678;9.110;2023-04-06T01:56:25;-2.30;99.90
28823;DHT22;15961;54.678;9.110;2023-04-06T01:58:51;-2.30;99.90
28823;DHT22;15961;54.678;9.110;2023-04-06T02:01:17;-2.30;99.90
28823;DHT22;15961;54.678;9.110;2023-04-06T02:03:42;-2.40;99.90
28823;DHT22;15961;54.678;9.110;2023-04-06T02:06:08;-2.40;99.90
28823;DHT22;15961;54.678;9.110;2023-04-06T02:08:34;-2.30;99.90
28823;DHT22;15961;54.678;9.110;2023-04-06T02:10:59;-2.30;99.90
28823;DHT22;15961;54.678;9.110;2023-04-06T02:13:25;-2.30;99.90
28823;DHT22;15961;54.678;9.110;2023-04-06T02:15:50;-2.30;99.90
28823;DHT22;15961;54.678;9.110;2023-04-06T02:18:16;-2.30;99.90
28823;DHT22;15961;54.678;9.110;2023-04-06T02:20:43;-2.30;99.90
28823;DHT22;15961;54.678;9.110;2023-04-06T02:23:09;-2.30;99.90
28823;DHT22;15961;54.678;9.110;2023-04-06T02:25:35;-2.30;99.90
28823;DHT22;15961;54.678;9.110;2023-04-06T02:28:01;-2.30;99.90
28823;DHT22;15961;54.678;9.110;2023-04-06T02:30:26;-2.30;99.90
28823;DHT22;15961;54.678;9.110;2023-04-06T02:32:52;-2.30;99.90
28823;DHT22;15961;54.678;9.110;2023-04-06T02:35:18;-2.40;99.90
28823;DHT22;15961;54.678;9.110;2023-04-06T02:37:43;-2.40;99.90
28823;DHT22;15961;54.678;9.110;2023-04-06T02:40:09;-2.40;99.90
28823;DHT22;15961;54.678;9.110;2023-04-06T02:42:35;-2.50;99.90
28823;DHT22;15961;54.678;9.110;2023-04-06T02:45:01;-2.40;99.90
28823;DHT22;15961;54.678;9.110;2023-04-06T02:47:26;-2.40;99.90
28823;DHT22;15961;54.678;9.110;2023-04-06T02:49:55;-2.40;99.90
28823;DHT22;15961;54.678;9.110;2023-04-06T02:52:20;-2.40;99.90
28823;DHT22;15961;54.678;9.110;2023-04-06T02:54:46;-2.20;99.90
28823;DHT22;15961;54.678;9.110;2023-04-06T02:57:11;-2.20;99.90
28823;DHT22;15961;54.678;9.110;2023-04-06T02:59:37;-2.20;99.90
28823;DHT22;15961;54.678;9.110;2023-04-06T03:02:03;-2.20;99.90
28823;DHT22;15961;54.678;9.110;2023-04-06T03:04:28;-2.10;99.90
28823;DHT22;15961;54.678;9.110;2023-04-06T03:06:54;-2.10;99.90
28823;DHT22;15961;54.678;9.110;2023-04-06T03:09:20;-2.00;99.90
28823;DHT22;15961;54.678;9.110;2023-04-06T03:11:46;-2.00;99.90
28823;DHT22;15961;54.678;9.110;2023-04-06T03:14:14;-2.00;99.90
28823;DHT22;15961;54.678;9.110;2023-04-06T03:16:42;-2.00;99.90
28823;DHT22;15961;54.678;9.110;2023-04-06T03:19:08;-1.90;99.90
28823;DHT22;15961;54.678;9.110;2023-04-06T03:21:33;-2.00;99.90
28823;DHT22;15961;54.678;9.110;2023-04-06T03:23:59;-2.10;99.90
28823;DHT22;15961;54.678;9.110;2023-04-06T03:26:24;-2.30;99.90
28823;DHT22;15961;54.678;9.110;2023-04-06T03:28:50;-2.30;99.90
28823;DHT22;15961;54.678;9.110;2023-04-06T03:31:15;-2.40;99.90
28823;DHT22;15961;54.678;9.110;2023-04-06T03:33:41;-2.40;99.90
28823;DHT22;15961;54.678;9.110;2023-04-06T03:36:07;-2.40;99.90
28823;DHT22;15961;54.678;9.110;2023-04-06T03:38:32;-2.30;99.90
28823;DHT22;15961;54.678;9.110;2023-04-06T03:40:58;-2.20;99.90
28823;DHT22;15961;54.678;9.110;2023-04-06T03:43:23;-2.10;99.90
28823;DHT22;15961;54.678;9.110;2023-04-06T03:45:49;-2.00;99.90
28823;DHT22;15961;54.678;9.110;2023-04-06T03:48:15;-2.00;99.90
28823;DHT22;15961;54.678;9.110;2023-04-06T03:50:40;-2.00;99.90
28823;DHT22;15961;54.678;9.110;2023-04-06T03:53:06;-2.10;99.90
28823;DHT22;15961;54.678;9.110;2023-04-06T03:55:31;-2.20;99.90
28823;DHT22;15961;54.678;9.110;2023-04-06T03:57:57;-2.20;99.90
28823;DHT22;15961;54.678;9.110;2023-04-06T04:00:23;-2.20;99.90
28823;DHT22;15961;54.678;9.110;2023-04-06T04:02:48;-2.10;99.90
28823;DHT22;15961;54.678;9.110;2023-04-06T04:05:14;-2.00;99.90
28823;DHT22;15961;54.678;9.110;2023-04-06T04:07:40;-2.00;99.90
28823;DHT22;15961;54.678;9.110;2023-04-06T04:10:06;-2.00;99.90
28823;DHT22;15961;54.678;9.110;2023-04-06T04:12:32;-1.90;99.90
28823;DHT22;15961;54.678;9.110;2023-04-06T04:14:57;-1.90;99.90
28823;DHT22;15961;54.678;9.110;2023-04-06T04:17:24;-2.00;99.90
28823;DHT22;15961;54.678;9.110;2023-04-06T04:19:50;-2.00;99.90
28823;DHT22;15961;54.678;9.110;2023-04-06T04:22:15;-2.00;99.90
28823;DHT22;15961;54.678;9.110;2023-04-06T04:24:41;-2.10;99.90
28823;DHT22;15961;54.678;9.110;2023-04-06T04:27:09;-2.20;99.90
28823;DHT22;15961;54.678;9.110;2023-04-06T04:29:37;-2.20;99.90
28823;DHT22;15961;54.678;9.110;2023-04-06T04:32:03;-2.30;99.90
28823;DHT22;15961;54.678;9.110;2023-04-06T04:34:28;-2.30;99.90
28823;DHT22;15961;54.678;9.110;2023-04-06T04:36:54;-2.40;99.90
28823;DHT22;15961;54.678;9.110;2023-04-06T04:39:20;-2.40;99.90
28823;DHT22;15961;54.678;9.110;2023-04-06T04:41:47;-2.40;99.90
28823;DHT22;15961;54.678;9.110;2023-04-06T04:44:13;-2.50;99.90
28823;DHT22;15961;54.678;9.110;2023-04-06T04:46:39;-2.40;99.90
28823;DHT22;15961;54.678;9.110;2023-04-06T04:49:04;-2.40;99.90
28823;DHT22;15961;54.678;9.110;2023-04-06T04:51:30;-2.50;99.90
28823;DHT22;15961;54.678;9.110;2023-04-06T04:53:57;-2.40;99.90
28823;DHT22;15961;54.678;9.110;2023-04-06T04:56:22;-2.50;99.90
28823;DHT22;15961;54.678;9.110;2023-04-06T04:58:48;-2.50;99.90
28823;DHT22;15961;54.678;9.110;2023-04-06T05:01:16;-2.50;99.90
28823;DHT22;15961;54.678;9.110;2023-04-06T05:03:42;-2.50;99.90
28823;DHT22;15961;54.678;9.110;2023-04-06T05:06:07;-2.50;99.90
28823;DHT22;15961;54.678;9.110;2023-04-06T05:08:33;-2.50;99.90
28823;DHT22;15961;54.678;9.110;2023-04-06T05:10:59;-2.50;99.90
28823;DHT22;15961;54.678;9.110;2023-04-06T05:13:24;-2.50;99.90
28823;DHT22;15961;54.678;9.110;2023-04-06T05:15:50;-2.50;99.90
28823;DHT22;15961;54.678;9.110;2023-04-06T05:18:16;-2.50;99.90
28823;DHT22;15961;54.678;9.110;2023-04-06T05:20:42;-2.50;99.90
28823;DHT22;15961;54.678;9.110;2023-04-06T05:23:08;-2.40;99.90
28823;DHT22;15961;54.678;9.110;2023-04-06T05:25:33;-2.40;99.90
28823;DHT22;15961;54.678;9.110;2023-04-06T05:27:59;-2.40;99.90
28823;DHT22;15961;54.678;9.110;2023-04-06T05:30:25;-2.30;99.90
28823;DHT22;15961;54.678;9.110;2023-04-06T05:32:50;-2.30;99.90
28823;DHT22;15961;54.678;9.110;2023-04-06T05:35:16;-2.20;99.90
28823;DHT22;15961;54.678;9.110;2023-04-06T05:37:43;-2.10;99.90
28823;DHT22;15961;54.678;9.110;2023-04-06T05:40:09;-2.10;99.90
28823;DHT22;15961;54.678;9.110;2023-04-06T05:42:38;-2.00;99.90
28823;DHT22;15961;54.678;9.110;2023-04-06T05:45:05;-1.90;99.90
28823;DHT22;15961;54.678;9.110;2023-04-06T05:47:31;-1.80;99.90
28823;DHT22;15961;54.678;9.110;2023-04-06T05:49:56;-1.70;99.90
28823;DHT22;15961;54.678;9.110;2023-04-06T05:52:22;-1.60;99.90
28823;DHT22;15961;54.678;9.110;2023-04-06T05:54:47;-1.50;99.90
28823;DHT22;15961;54.678;9.110;2023-04-06T05:57:13;-1.40;99.90
28823;DHT22;15961;54.678;9.110;2023-04-06T05:59:38;-1.30;99.90
28823;DHT22;15961;54.678;9.110;2023-04-06T06:02:04;-1.20;99.90
28823;DHT22;15961;54.678;9.110;2023-04-06T06:04:30;-1.00;99.90
28823;DHT22;15961;54.678;9.110;2023-04-06T06:06:56;-0.80;99.90
28823;DHT22;15961;54.678;9.110;2023-04-06T06:09:21;-0.70;99.90
28823;DHT22;15961;54.678;9.110;2023-04-06T06:11:48;-0.50;99.90
28823;DHT22;15961;54.678;9.110;2023-04-06T06:14:13;-0.40;99.90
28823;DHT22;15961;54.678;9.110;2023-04-06T06:16:39;-0.20;99.90
28823;DHT22;15961;54.678;9.110;2023-04-06T06:19:04;-0.10;99.90
28823;DHT22;15961;54.678;9.110;2023-04-06T06:21:30;0.10;99.90
28823;DHT22;15961;54.678;9.110;2023-04-06T06:23:56;0.30;99.90
28823;DHT22;15961;54.678;9.110;2023-04-06T06:26:22;0.50;99.90
28823;DHT22;15961;54.678;9.110;2023-04-06T06:28:47;0.60;99.90
28823;DHT22;15961;54.678;9.110;2023-04-06T06:31:13;0.80;99.90
28823;DHT22;15961;54.678;9.110;2023-04-06T06:33:39;0.90;99.90
28823;DHT22;15961;54.678;9.110;2023-04-06T06:36:05;1.10;99.90
28823;DHT22;15961;54.678;9.110;2023-04-06T06:38:30;1.30;99.90
28823;DHT22;15961;54.678;9.110;2023-04-06T06:40:56;1.50;99.90
28823;DHT22;15961;54.678;9.110;2023-04-06T06:43:22;1.80;99.90
28823;DHT22;15961;54.678;9.110;2023-04-06T06:45:47;2.00;99.90
28823;DHT22;15961;54.678;9.110;2023-04-06T06:48:13;2.20;99.90
28823;DHT22;15961;54.678;9.110;2023-04-06T06:50:38;2.30;99.90
28823;DHT22;15961;54.678;9.110;2023-04-06T06:53:04;2.50;99.90
28823;DHT22;15961;54.678;9.110;2023-04-06T06:55:30;2.70;99.90
28823;DHT22;15961;54.678;9.110;2023-04-06T06:57:55;2.90;99.90
28823;DHT22;15961;54.678;9.110;2023-04-06T07:00:21;3.10;99.90
28823;DHT22;15961;54.678;9.110;2023-04-06T07:02:47;3.20;99.90
28823;DHT22;15961;54.678;9.110;2023-04-06T07:05:13;3.40;99.90
28823;DHT22;15961;54.678;9.110;2023-04-06T07:07:39;3.60;99.90
28823;DHT22;15961;54.678;9.110;2023-04-06T07:10:06;3.70;99.90
28823;DHT22;15961;54.678;9.110;2023-04-06T07:12:31;3.80;99.90
28823;DHT22;15961;54.678;9.110;2023-04-06T07:14:57;4.00;99.90
28823;DHT22;15961;54.678;9.110;2023-04-06T07:17:23;4.20;99.90
28823;DHT22;15961;54.678;9.110;2023-04-06T07:19:48;4.40;99.90
28823;DHT22;15961;54.678;9.110;2023-04-06T07:22:14;4.60;99.90
28823;DHT22;15961;54.678;9.110;2023-04-06T07:24:39;4.70;99.90
28823;DHT22;15961;54.678;9.110;2023-04-06T07:27:05;4.70;99.90
28823;DHT22;15961;54.678;9.110;2023-04-06T07:29:31;5.00;99.90
28823;DHT22;15961;54.678;9.110;2023-04-06T07:31:56;5.30;99.90
28823;DHT22;15961;54.678;9.110;2023-04-06T07:34:22;5.50;99.90
28823;DHT22;15961;54.678;9.110;2023-04-06T07:36:48;5.60;99.90
28823;DHT22;15961;54.678;9.110;2023-04-06T07:39:14;5.80;99.90
28823;DHT22;15961;54.678;9.110;2023-04-06T07:41:40;6.00;99.90
28823;DHT22;15961;54.678;9.110;2023-04-06T07:44:06;6.20;99.90
28823;DHT22;15961;54.678;9.110;2023-04-06T07:46:32;6.40;99.90
28823;DHT22;15961;54.678;9.110;2023-04-06T07:48:59;6.70;99.90
28823;DHT22;15961;54.678;9.110;2023-04-06T07:51:24;6.90;99.90
28823;DHT22;15961;54.678;9.110;2023-04-06T07:53:51;6.90;99.90
28823;DHT22;15961;54.678;9.110;2023-04-06T07:56:17;7.10;99.90
28823;DHT22;15961;54.678;9.110;2023-04-06T07:58:43;7.40;99.90
28823;DHT22;15961;54.678;9.110;2023-04-06T08:01:08;7.50;99.90
28823;DHT22;15961;54.678;9.110;2023-04-06T08:03:35;7.60;99.90
28823;DHT22;15961;54.678;9.110;2023-04-06T08:06:01;7.90;99.90
28823;DHT22;15961;54.678;9.110;2023-04-06T08:08:27;7.80;99.90
28823;DHT22;15961;54.678;9.110;2023-04-06T08:10:53;8.00;99.90
28823;DHT22;15961;54.678;9.110;2023-04-06T08:13:18;8.10;99.90
28823;DHT22;15961;54.678;9.110;2023-04-06T08:15:44;8.20;99.90
28823;DHT22;15961;54.678;9.110;2023-04-06T08:18:11;8.40;99.90
28823;DHT22;15961;54.678;9.110;2023-04-06T08:20:39;8.50;99.90
28823;DHT22;15961;54.678;9.110;2023-04-06T08:23:05;8.60;99.90
28823;DHT22;15961;54.678;9.110;2023-04-06T08:25:33;8.90;99.90
28823;DHT22;15961;54.678;9.110;2023-04-06T08:27:59;9.00;99.90
28823;DHT22;15961;54.678;9.110;2023-04-06T08:30:25;9.00;99.90
28823;DHT22;15961;54.678;9.110;2023-04-06T08:32:50;8.90;99.90
28823;DHT22;15961;54.678;9.110;2023-04-06T08:35:16;9.10;99.90
28823;DHT22;15961;54.678;9.110;2023-04-06T08:37:42;9.30;99.90
28823;DHT22;15961;54.678;9.110;2023-04-06T08:40:08;9.40;99.90
28823;DHT22;15961;54.678;9.110;2023-04-06T08:42:39;9.50;99.90
28823;DHT22;15961;54.678;9.110;2023-04-06T08:45:16;9.70;99.90
28823;DHT22;15961;54.678;9.110;2023-04-06T08:47:42;9.90;99.90
28823;DHT22;15961;54.678;9.110;2023-04-06T08:50:08;10.00;99.90
28823;DHT22;15961;54.678;9.110;2023-04-06T08:52:34;10.20;99.90
28823;DHT22;15961;54.678;9.110;2023-04-06T08:55:00;10.20;99.90
28823;DHT22;15961;54.678;9.110;2023-04-06T08:57:26;10.40;99.90
28823;DHT22;15961;54.678;9.110;2023-04-06T08:59:52;10.50;99.90
28823;DHT22;15961;54.678;9.110;2023-04-06T09:02:19;10.60;99.90
28823;DHT22;15961;54.678;9.110;2023-04-06T09:04:49;10.70;99.90
28823;DHT22;15961;54.678;9.110;2023-04-06T09:07:17;10.40;99.90
28823;DHT22;15961;54.678;9.110;2023-04-06T09:09:52;10.50;99.90
28823;DHT22;15961;54.678;9.110;2023-04-06T09:12:27;10.70;99.90
28823;DHT22;15961;54.678;9.110;2023-04-06T09:14:54;10.90;99.90
28823;DHT22;15961;54.678;9.110;2023-04-06T09:17:22;10.90;99.90
28823;DHT22;15961;54.678;9.110;2023-04-06T09:19:49;10.80;99.90
28823;DHT22;15961;54.678;9.110;2023-04-06T09:22:15;10.80;99.90
28823;DHT22;15961;54.678;9.110;2023-04-06T09:24:49;10.90;99.90
28823;DHT22;15961;54.678;9.110;2023-04-06T09:27:15;11.20;99.90
28823;DHT22;15961;54.678;9.110;2023-04-06T09:29:42;11.30;99.90
28823;DHT22;15961;54.678;9.110;2023-04-06T09:32:09;11.40;99.90
28823;DHT22;15961;54.678;9.110;2023-04-06T09:34:42;11.60;99.90
28823;DHT22;15961;54.678;9.110;2023-04-06T09:37:17;11.60;99.90
28823;DHT22;15961;54.678;9.110;2023-04-06T09:39:44;11.70;99.90
28823;DHT22;15961;54.678;9.110;2023-04-06T09:42:09;11.80;99.90
28823;DHT22;15961;54.678;9.110;2023-04-06T09:44:35;12.10;99.90
28823;DHT22;15961;54.678;9.110;2023-04-06T09:47:03;12.00;99.90
28823;DHT22;15961;54.678;9.110;2023-04-06T09:49:31;12.10;99.90
28823;DHT22;15961;54.678;9.110;2023-04-06T09:52:00;12.10;99.90
28823;DHT22;15961;54.678;9.110;2023-04-06T09:54:28;12.20;99.90
28823;DHT22;15961;54.678;9.110;2023-04-06T09:56:56;12.40;99.90
28823;DHT22;15961;54.678;9.110;2023-04-06T09:59:50;12.20;99.90
28823;DHT22;15961;54.678;9.110;2023-04-06T10:08:22;12.20;99.90
28823;DHT22;15961;54.678;9.110;2023-04-06T10:10:50;12.50;99.90
28823;DHT22;15961;54.678;9.110;2023-04-06T10:13:16;12.80;99.90
28823;DHT22;15961;54.678;9.110;2023-04-06T10:15:44;12.60;99.90
28823;DHT22;15961;54.678;9.110;2023-04-06T10:18:10;12.70;99.90
28823;DHT22;15961;54.678;9.110;2023-04-06T10:20:43;13.00;99.90
28823;DHT22;15961;54.678;9.110;2023-04-06T10:23:18;12.80;99.90
28823;DHT22;15961;54.678;9.110;2023-04-06T10:25:57;12.90;99.90
28823;DHT22;15961;54.678;9.110;2023-04-06T10:28:24;12.70;99.90
28823;DHT22;15961;54.678;9.110;2023-04-06T10:30:56;12.90;99.90
28823;DHT22;15961;54.678;9.110;2023-04-06T10:33:22;13.20;99.90
28823;DHT22;15961;54.678;9.110;2023-04-06T10:35:48;13.20;99.90
28823;DHT22;15961;54.678;9.110;2023-04-06T10:38:14;13.00;99.90
28823;DHT22;15961;54.678;9.110;2023-04-06T10:40:41;12.50;99.90
28823;DHT22;15961;54.678;9.110;2023-04-06T10:43:13;12.50;99.90
28823;DHT22;15961;54.678;9.110;2023-04-06T10:45:40;12.50;99.90
28823;DHT22;15961;54.678;9.110;2023-04-06T10:48:16;12.90;99.90
28823;DHT22;15961;54.678;9.110;2023-04-06T10:50:47;13.10;99.90
28823;DHT22;15961;54.678;9.110;2023-04-06T10:53:21;13.50;99.90
28823;DHT22;15961;54.678;9.110;2023-04-06T10:55:50;13.70;99.90
28823;DHT22;15961;54.678;9.110;2023-04-06T10:58:16;13.60;99.90
28823;DHT22;15961;54.678;9.110;2023-04-06T11:00:48;13.70;99.90
28823;DHT22;15961;54.678;9.110;2023-04-06T11:03:17;14.10;99.90
28823;DHT22;15961;54.678;9.110;2023-04-06T11:05:44;13.80;99.90
28823;DHT22;15961;54.678;9.110;2023-04-06T11:08:21;13.90;99.90
28823;DHT22;15961;54.678;9.110;2023-04-06T11:10:47;14.10;99.90
28823;DHT22;15961;54.678;9.110;2023-04-06T11:13:12;14.00;99.90
28823;DHT22;15961;54.678;9.110;2023-04-06T11:15:38;14.20;99.90
28823;DHT22;15961;54.678;9.110;2023-04-06T11:18:04;14.20;99.90
28823;DHT22;15961;54.678;9.110;2023-04-06T11:20:30;14.10;99.90
28823;DHT22;15961;54.678;9.110;2023-04-06T11:22:56;14.20;99.90
28823;DHT22;15961;54.678;9.110;2023-04-06T11:25:21;14.20;99.90
28823;DHT22;15961;54.678;9.110;2023-04-06T11:27:47;14.30;99.90
28823;DHT22;15961;54.678;9.110;2023-04-06T11:30:14;14.30;99.90
28823;DHT22;15961;54.678;9.110;2023-04-06T11:32:41;14.20;99.90
28823;DHT22;15961;54.678;9.110;2023-04-06T11:35:10;13.90;99.90
28823;DHT22;15961;54.678;9.110;2023-04-06T11:37:36;13.90;99.90
28823;DHT22;15961;54.678;9.110;2023-04-06T11:40:02;14.10;99.90
28823;DHT22;15961;54.678;9.110;2023-04-06T11:42:29;14.30;99.90
28823;DHT22;15961;54.678;9.110;2023-04-06T11:44:57;14.50;99.90
28823;DHT22;15961;54.678;9.110;2023-04-06T11:47:30;14.50;99.90
28823;DHT22;15961;54.678;9.110;2023-04-06T11:49:56;15.00;99.90
28823;DHT22;15961;54.678;9.110;2023-04-06T11:52:26;15.00;99.90
28823;DHT22;15961;54.678;9.110;2023-04-06T11:54:54;14.80;98.80
28823;DHT22;15961;54.678;9.110;2023-04-06T11:57:23;15.00;99.90
28823;DHT22;15961;54.678;9.110;2023-04-06T11:59:51;15.20;98.40
28823;DHT22;15961;54.678;9.110;2023-04-06T12:02:18;15.50;99.90
28823;DHT22;15961;54.678;9.110;2023-04-06T12:04:44;15.80;97.90
28823;DHT22;15961;54.678;9.110;2023-04-06T12:07:10;15.90;96.10
28823;DHT22;15961;54.678;9.110;2023-04-06T12:09:35;15.90;98.70
28823;DHT22;15961;54.678;9.110;2023-04-06T12:12:02;16.10;93.40
28823;DHT22;15961;54.678;9.110;2023-04-06T12:14:28;16.50;96.10
28823;DHT22;15961;54.678;9.110;2023-04-06T12:16:56;16.80;97.30
28823;DHT22;15961;54.678;9.110;2023-04-06T12:19:22;16.90;95.70
28823;DHT22;15961;54.678;9.110;2023-04-06T12:21:53;17.30;95.40
28823;DHT22;15961;54.678;9.110;2023-04-06T12:24:22;17.60;93.20
28823;DHT22;15961;54.678;9.110;2023-04-06T12:26:48;17.70;94.70
28823;DHT22;15961;54.678;9.110;2023-04-06T12:29:14;18.20;93.40
28823;DHT22;15961;54.678;9.110;2023-04-06T12:31:40;18.00;91.30
28823;DHT22;15961;54.678;9.110;2023-04-06T12:34:06;18.00;90.60
28823;DHT22;15961;54.678;9.110;2023-04-06T12:36:33;18.10;90.70
28823;DHT22;15961;54.678;9.110;2023-04-06T12:38:59;17.80;91.40
28823;DHT22;15961;54.678;9.110;2023-04-06T12:41:25;17.60;90.30
28823;DHT22;15961;54.678;9.110;2023-04-06T12:43:53;17.90;90.10
28823;DHT22;15961;54.678;9.110;2023-04-06T12:46:19;18.60;91.10
28823;DHT22;15961;54.678;9.110;2023-04-06T12:48:45;18.80;89.90
28823;DHT22;15961;54.678;9.110;2023-04-06T12:51:11;18.00;84.90
28823;DHT22;15961;54.678;9.110;2023-04-06T12:53:37;18.00;90.20
28823;DHT22;15961;54.678;9.110;2023-04-06T12:56:09;18.60;88.90
28823;DHT22;15961;54.678;9.110;2023-04-06T12:58:36;18.90;88.60
28823;DHT22;15961;54.678;9.110;2023-04-06T13:01:06;18.40;83.10
28823;DHT22;15961;54.678;9.110;2023-04-06T13:03:32;17.70;85.80
28823;DHT22;15961;54.678;9.110;2023-04-06T13:05:59;18.20;86.60
28823;DHT22;15961;54.678;9.110;2023-04-06T13:08:26;19.10;87.50
28823;DHT22;15961;54.678;9.110;2023-04-06T13:10:53;19.30;86.30
28823;DHT22;15961;54.678;9.110;2023-04-06T13:13:25;18.90;81.90
28823;DHT22;15961;54.678;9.110;2023-04-06T13:15:51;19.10;80.60
28823;DHT22;15961;54.678;9.110;2023-04-06T13:18:20;19.50;81.50
28823;DHT22;15961;54.678;9.110;2023-04-06T13:20:49;19.00;77.10
28823;DHT22;15961;54.678;9.110;2023-04-06T13:23:23;18.90;82.90
28823;DHT22;15961;54.678;9.110;2023-04-06T13:25:57;19.00;78.60
28823;DHT22;15961;54.678;9.110;2023-04-06T13:28:24;18.80;79.50
28823;DHT22;15961;54.678;9.110;2023-04-06T13:30:49;18.90;76.50
28823;DHT22;15961;54.678;9.110;2023-04-06T13:33:15;19.10;81.60
28823;DHT22;15961;54.678;9.110;2023-04-06T13:35:44;19.20;78.50
28823;DHT22;15961;54.678;9.110;2023-04-06T13:38:10;19.00;77.30
28823;DHT22;15961;54.678;9.110;2023-04-06T13:40:39;19.10;76.00
28823;DHT22;15961;54.678;9.110;2023-04-06T13:43:05;19.20;78.20
28823;DHT22;15961;54.678;9.110;2023-04-06T13:45:31;18.90;72.30
28823;DHT22;15961;54.678;9.110;2023-04-06T13:47:56;18.50;72.30
28823;DHT22;15961;54.678;9.110;2023-04-06T13:50:22;18.80;76.20
28823;DHT22;15961;54.678;9.110;2023-04-06T13:52:48;19.20;73.20
28823;DHT22;15961;54.678;9.110;2023-04-06T13:55:14;19.50;73.70
28823;DHT22;15961;54.678;9.110;2023-04-06T13:57:41;19.60;74.30
28823;DHT22;15961;54.678;9.110;2023-04-06T14:00:07;18.70;71.40
28823;DHT22;15961;54.678;9.110;2023-04-06T14:02:34;18.30;71.80
28823;DHT22;15961;54.678;9.110;2023-04-06T14:04:59;18.00;75.50
28823;DHT22;15961;54.678;9.110;2023-04-06T14:07:25;17.70;73.10
28823;DHT22;15961;54.678;9.110;2023-04-06T14:09:51;17.70;74.30
28823;DHT22;15961;54.678;9.110;2023-04-06T14:12:16;17.90;73.80
28823;DHT22;15961;54.678;9.110;2023-04-06T14:14:42;18.00;72.70
28823;DHT22;15961;54.678;9.110;2023-04-06T14:17:07;18.10;74.30
28823;DHT22;15961;54.678;9.110;2023-04-06T14:19:33;18.20;76.10
28823;DHT22;15961;54.678;9.110;2023-04-06T14:21:59;18.20;73.20
28823;DHT22;15961;54.678;9.110;2023-04-06T14:24:25;18.50;77.50
28823;DHT22;15961;54.678;9.110;2023-04-06T14:26:51;18.50;75.10
28823;DHT22;15961;54.678;9.110;2023-04-06T14:29:17;18.40;74.40
28823;DHT22;15961;54.678;9.110;2023-04-06T14:31:44;18.50;79.40
28823;DHT22;15961;54.678;9.110;2023-04-06T14:34:10;18.90;75.40
28823;DHT22;15961;54.678;9.110;2023-04-06T14:36:36;18.90;72.80
28823;DHT22;15961;54.678;9.110;2023-04-06T14:39:04;18.70;72.30
28823;DHT22;15961;54.678;9.110;2023-04-06T14:41:30;18.70;75.10
28823;DHT22;15961;54.678;9.110;2023-04-06T14:43:56;19.20;77.00
28823;DHT22;15961;54.678;9.110;2023-04-06T14:46:22;19.20;75.90
28823;DHT22;15961;54.678;9.110;2023-04-06T14:48:48;19.00;72.40
28823;DHT22;15961;54.678;9.110;2023-04-06T14:51:13;18.60;74.70
28823;DHT22;15961;54.678;9.110;2023-04-06T14:53:39;18.50;75.80
28823;DHT22;15961;54.678;9.110;2023-04-06T14:56:05;18.30;75.20
28823;DHT22;15961;54.678;9.110;2023-04-06T14:58:31;18.20;76.00
28823;DHT22;15961;54.678;9.110;2023-04-06T15:00:58;17.90;72.90
28823;DHT22;15961;54.678;9.110;2023-04-06T15:03:24;18.10;77.00
28823;DHT22;15961;54.678;9.110;2023-04-06T15:05:51;18.70;77.10
28823;DHT22;15961;54.678;9.110;2023-04-06T15:08:23;18.80;73.20
28823;DHT22;15961;54.678;9.110;2023-04-06T15:10:49;18.50;72.70
28823;DHT22;15961;54.678;9.110;2023-04-06T15:13:15;18.00;74.40
28823;DHT22;15961;54.678;9.110;2023-04-06T15:15:41;17.90;73.50
28823;DHT22;15961;54.678;9.110;2023-04-06T15:18:08;17.80;75.50
28823;DHT22;15961;54.678;9.110;2023-04-06T15:20:33;17.70;73.30
28823;DHT22;15961;54.678;9.110;2023-04-06T15:23:01;17.70;74.30
28823;DHT22;15961;54.678;9.110;2023-04-06T15:25:26;17.50;74.00
28823;DHT22;15961;54.678;9.110;2023-04-06T15:27:53;17.30;74.10
28823;DHT22;15961;54.678;9.110;2023-04-06T15:30:21;17.30;75.80
28823;DHT22;15961;54.678;9.110;2023-04-06T15:32:55;17.40;75.80
28823;DHT22;15961;54.678;9.110;2023-04-06T15:35:31;17.50;74.80